Time;durP1;ratioP1;P1;durP2;ratioP2;P2;SDS_P1;SDS_P2;PMS_P1;PMS_P2;Temp;Humidity;BMP_temperature;BMP_pressure;BME280_temperature;BME280_humidity;BME280_pressure;Samples;Min_cycle;Max_cycle;Signal;HPM_P1;HPM_P2
2021/05/07 00:02:10;;;;;;;8.32;3.45;;;;;;;12.06;77.72;96830.06;4907375;29;20064;-62
2021/05/07 00:04:35;;;;;;;5.45;3.42;;;;;;;12.27;77.84;96871.84;4908055;29;20032;-62
2021/05/07 00:07:01;;;;;;;5.85;3.90;;;;;;;12.04;77.85;96824.84;4905519;29;20112;-64
2021/05/07 00:09:27;;;;;;;5.60;3.47;;;;;;;12.17;77.91;96844.81;4907666;29;20186;-62
2021/05/07 00:11:53;;;;;;;6.30;3.58;;;;;;;12.19;77.86;96859.09;4905755;29;20419;-62
2021/05/07 00:14:19;;;;;;;9.43;4.50;;;;;;;11.87;77.85;96802.53;4907445;29;20040;-62
2021/05/07 00:16:44;;;;;;;11.50;4.32;;;;;;;12.17;78.85;96872.59;4907192;29;20558;-62
2021/05/07 00:19:10;;;;;;;6.25;4.50;;;;;;;12.14;78.81;96867.78;4907389;29;20040;-62
2021/05/07 00:21:35;;;;;;;5.32;3.65;;;;;;;11.80;80.48;96846.88;4906773;29;20043;-62
2021/05/07 00:24:02;;;;;;;7.13;4.20;;;;;;;11.96;80.42;96862.09;4911208;29;20543;-64
2021/05/07 00:26:27;;;;;;;5.32;4.10;;;;;;;11.95;80.94;96865.22;4910622;29;20032;-62
2021/05/07 00:28:53;;;;;;;5.05;4.00;;;;;;;12.01;80.39;96863.72;4911517;29;20423;-62
2021/05/07 00:31:19;;;;;;;5.75;4.32;;;;;;;11.38;79.80;96747.38;4909354;29;20032;-63
2021/05/07 00:33:44;;;;;;;6.40;4.70;;;;;;;12.01;79.66;96869.28;4909668;29;20153;-65
2021/05/07 00:36:10;;;;;;;8.32;4.15;;;;;;;12.07;79.98;96870.50;4910578;29;20043;-63
2021/05/07 00:38:35;;;;;;;6.95;4.10;;;;;;;11.99;80.38;96889.09;4911720;29;20043;-63
2021/05/07 00:41:00;;;;;;;4.95;3.65;;;;;;;12.09;79.81;96873.69;4911019;29;20032;-63
2021/05/07 00:43:26;;;;;;;6.07;3.90;;;;;;;11.77;79.50;96825.44;4910922;29;20671;-65
2021/05/07 00:45:51;;;;;;;5.72;3.85;;;;;;;11.45;79.39;96791.03;4910564;29;20028;-63
2021/05/07 00:48:18;;;;;;;5.72;3.65;;;;;;;11.90;80.05;96868.38;4911380;29;20036;-62
2021/05/07 00:50:45;;;;;;;8.07;4.03;;;;;;;11.89;79.63;96884.22;4910834;29;20036;-65
2021/05/07 00:53:11;;;;;;;6.85;3.38;;;;;;;11.78;80.45;96888.88;4911239;29;20040;-63
2021/05/07 00:55:38;;;;;;;6.75;3.97;;;;;;;11.83;80.73;96879.41;4910770;29;20107;-63
2021/05/07 00:58:05;;;;;;;6.47;3.75;;;;;;;11.80;80.31;96869.06;4925355;29;20071;-62
2021/05/07 01:00:32;;;;;;;7.30;3.30;;;;;;;10.77;81.35;96749.13;4910081;29;20063;-62
2021/05/07 01:02:58;;;;;;;5.13;4.00;;;;;;;11.72;81.23;96884.06;4910726;29;20416;-64
2021/05/07 01:05:25;;;;;;;7.03;4.20;;;;;;;11.43;80.88;96835.78;4910115;29;20508;-62
2021/05/07 01:07:51;;;;;;;6.13;4.40;;;;;;;11.57;81.50;96876.75;4910845;29;20036;-62
2021/05/07 01:10:18;;;;;;;6.07;4.28;;;;;;;11.72;81.08;96878.50;4908607;29;20028;-66
2021/05/07 01:12:44;;;;;;;8.68;4.50;;;;;;;11.67;80.83;96881.63;4911029;29;20488;-63
2021/05/07 01:15:15;;;;;;;7.63;4.18;;;;;;;11.70;80.53;96872.53;4910026;29;20042;-63
2021/05/07 01:17:46;;;;;;;7.93;3.85;;;;;;;11.70;80.92;96881.66;4910147;29;20072;-63
2021/05/07 01:20:24;;;;;;;5.28;4.13;;;;;;;8.85;81.47;96450.31;4908398;29;20036;-63
2021/05/07 01:22:57;;;;;;;7.75;4.00;;;;;;;11.44;81.30;96856.00;4909841;29;20040;-66
2021/05/07 01:25:27;;;;;;;;;;;;;;;11.44;81.54;96873.44;4910386;29;20050;-63
2021/05/07 01:27:58;;;;;;;6.28;4.00;;;;;;;11.23;82.29;96850.22;4910483;29;19973;-63
2021/05/07 01:30:25;;;;;;;4.53;3.92;;;;;;;11.38;81.84;96874.94;4909957;29;20040;-63
2021/05/07 01:32:51;;;;;;;6.60;3.83;;;;;;;11.19;83.14;96866.03;4909919;29;20151;-63
2021/05/07 01:35:25;;;;;;;8.07;3.97;;;;;;;10.95;83.17;96822.19;4908551;29;20160;-63
2021/05/07 01:37:54;;;;;;;6.80;3.70;;;;;;;11.04;82.95;96844.84;4910040;29;20143;-63
2021/05/07 01:40:24;;;;;;;7.57;4.05;;;;;;;11.12;82.90;96854.84;4908758;29;20058;-64
2021/05/07 01:42:50;;;;;;;7.82;4.45;;;;;;;11.19;82.55;96871.56;4910123;29;20393;-63
2021/05/07 01:45:17;;;;;;;6.15;3.83;;;;;;;11.13;83.30;96862.00;4909707;29;20032;-62
2021/05/07 01:47:44;;;;;;;6.30;4.63;;;;;;;10.41;84.25;96767.28;4909954;29;20044;-62
2021/05/07 01:50:12;;;;;;;9.13;5.68;;;;;;;11.01;85.16;96865.00;4909593;29;20032;-63
2021/05/07 01:52:38;;;;;;;9.15;5.07;;;;;;;10.97;85.65;96864.16;4909997;29;20060;-64
2021/05/07 01:55:06;;;;;;;7.60;4.72;;;;;;;10.86;86.55;96863.25;4908428;29;20032;-62
2021/05/07 01:57:33;;;;;;;10.23;5.82;;;;;;;10.90;87.36;96864.06;4908171;29;20074;-64
2021/05/07 01:59:59;;;;;;;7.50;4.60;;;;;;;10.90;86.52;96864.06;4909929;29;20043;-62
2021/05/07 02:02:25;;;;;;;8.55;5.55;;;;;;;10.85;87.05;96869.94;4907583;29;20040;-63
2021/05/07 02:04:50;;;;;;;8.80;4.80;;;;;;;10.88;86.49;96861.69;4909247;29;20531;-62
2021/05/07 02:07:16;;;;;;;7.60;5.03;;;;;;;10.54;85.79;96819.28;4907486;29;20127;-63
2021/05/07 02:09:42;;;;;;;6.53;5.10;;;;;;;10.46;85.67;96823.13;4909560;29;20036;-63
2021/05/07 02:12:07;;;;;;;10.13;4.60;;;;;;;10.79;86.61;96863.13;4909162;29;20099;-63
2021/05/07 02:14:33;;;;;;;6.93;4.50;;;;;;;10.17;86.09;96776.84;4909316;29;20488;-64
2021/05/07 02:17:00;;;;;;;6.18;4.63;;;;;;;10.52;84.95;96899.19;4907265;29;20052;-63
2021/05/07 02:19:26;;;;;;;6.35;4.28;;;;;;;10.92;84.60;96872.81;4907809;29;20039;-62
2021/05/07 02:21:51;;;;;;;9.43;4.40;;;;;;;10.46;83.83;96773.28;4908543;29;20427;-65
2021/05/07 02:24:17;;;;;;;8.70;4.00;;;;;;;10.52;83.70;96787.59;4909156;29;20568;-63
2021/05/07 02:26:42;;;;;;;6.50;3.92;;;;;;;10.86;84.40;96846.63;4907060;29;20036;-63
2021/05/07 02:29:07;;;;;;;9.85;4.65;;;;;;;10.17;84.64;96743.66;4909423;29;20419;-62
2021/05/07 02:31:33;;;;;;;6.68;4.72;;;;;;;10.77;84.97;96840.53;4908788;29;20149;-63
2021/05/07 02:33:59;;;;;;;12.75;5.05;;;;;;;10.68;85.16;96836.06;4906833;29;20043;-62
2021/05/07 02:36:24;;;;;;;6.90;4.45;;;;;;;10.54;85.21;96819.28;4908515;29;20051;-63
2021/05/07 02:38:50;;;;;;;7.25;4.78;;;;;;;10.70;85.20;96836.50;4908465;29;20086;-62
2021/05/07 02:41:15;;;;;;;7.50;4.03;;;;;;;10.59;85.84;96849.41;4908099;29;20035;-62
2021/05/07 02:43:41;;;;;;;9.43;4.57;;;;;;;10.49;86.03;96836.25;4908834;29;20037;-63
2021/05/07 02:46:06;;;;;;;5.47;4.07;;;;;;;10.06;85.57;96764.81;4907112;29;20040;-62
2021/05/07 02:48:32;;;;;;;6.15;4.05;;;;;;;10.00;85.40;96755.25;4907379;29;20504;-65
2021/05/07 02:50:57;;;;;;;5.97;4.28;;;;;;;10.58;85.53;96858.91;4906846;29;20134;-62
2021/05/07 02:53:23;;;;;;;6.07;4.38;;;;;;;10.44;86.63;96852.38;4908901;29;20123;-61
2021/05/07 02:55:48;;;;;;;9.95;4.43;;;;;;;9.92;86.83;96783.97;4908122;29;20511;-63
2021/05/07 02:58:14;;;;;;;8.90;4.40;;;;;;;10.30;87.26;96855.75;4908142;29;20119;-62
2021/05/07 03:00:39;;;;;;;6.35;4.28;;;;;;;10.11;87.62;96830.94;4908067;29;20055;-62
2021/05/07 03:03:04;;;;;;;9.45;4.82;;;;;;;10.27;87.38;96848.19;4907130;29;20599;-62
2021/05/07 03:05:30;;;;;;;7.90;4.65;;;;;;;10.32;86.88;96845.06;4908192;29;20063;-62
2021/05/07 03:07:55;;;;;;;5.07;3.90;;;;;;;10.40;85.92;96844.00;4908640;29;20068;-62
2021/05/07 03:10:21;;;;;;;9.98;5.10;;;;;;;10.46;86.22;96856.34;4908085;29;20427;-62
2021/05/07 03:12:46;;;;;;;6.40;4.68;;;;;;;10.39;86.31;96845.19;4907993;29;20496;-63
2021/05/07 03:15:12;;;;;;;6.60;4.75;;;;;;;9.93;86.61;96771.72;4907722;29;20032;-62
2021/05/07 03:17:38;;;;;;;6.10;4.15;;;;;;;10.46;86.56;96850.81;4907960;29;20048;-63
2021/05/07 03:20:06;;;;;;;8.63;4.47;;;;;;;10.33;86.13;96832.84;4908437;29;20561;-63
2021/05/07 03:22:32;;;;;;;6.57;4.45;;;;;;;10.47;86.15;96846.88;4907979;29;20074;-63
2021/05/07 03:24:57;;;;;;;6.47;4.65;;;;;;;10.48;86.57;96854.00;4906317;29;20028;-64
2021/05/07 03:27:22;;;;;;;9.18;4.78;;;;;;;10.15;86.32;96798.56;4907317;29;20043;-63
2021/05/07 03:29:48;;;;;;;7.47;4.63;;;;;;;10.40;86.02;96829.38;4907957;29;20036;-62
2021/05/07 03:32:13;;;;;;;6.20;4.65;;;;;;;10.38;86.91;96851.91;4907815;29;20051;-62
2021/05/07 03:34:39;;;;;;;4.95;4.22;;;;;;;10.50;87.63;96862.75;4906388;29;20467;-62
2021/05/07 03:37:04;;;;;;;5.30;4.20;;;;;;;9.66;87.06;96722.31;4907785;29;20111;-63
2021/05/07 03:39:30;;;;;;;4.70;4.15;;;;;;;10.67;84.90;96864.97;4906128;29;20028;-64
2021/05/07 03:41:55;;;;;;;7.78;4.78;;;;;;;10.47;83.88;96830.28;4907530;29;20047;-62
2021/05/07 03:44:21;;;;;;;8.88;4.80;;;;;;;10.73;83.20;96871.00;4907845;29;20099;-65
2021/05/07 03:46:46;;;;;;;13.00;4.25;;;;;;;10.23;83.31;96780.09;4905580;29;20832;-63
2021/05/07 03:49:12;;;;;;;6.72;4.25;;;;;;;10.79;84.60;96855.63;4907718;29;20054;-63
2021/05/07 03:51:37;;;;;;;6.90;4.28;;;;;;;10.86;85.50;96860.47;4907294;29;20044;-64
2021/05/07 03:54:03;;;;;;;4.88;4.10;;;;;;;11.03;84.56;96862.66;4907879;29;20439;-63
2021/05/07 03:56:29;;;;;;;8.05;4.30;;;;;;;11.03;84.49;96859.88;4906640;29;20149;-63
2021/05/07 03:58:55;;;;;;;7.18;3.97;;;;;;;11.25;83.84;96858.97;4908207;29;20052;-63
2021/05/07 04:01:21;;;;;;;7.78;3.83;;;;;;;11.29;83.46;96866.13;4907098;29;20055;-64
2021/05/07 04:03:47;;;;;;;17.20;4.40;;;;;;;11.41;83.38;96863.09;4907182;29;20566;-63
2021/05/07 04:06:17;;;;;;;10.68;4.65;;;;;;;11.52;82.54;96864.00;4907011;29;20032;-64
2021/05/07 04:08:44;;;;;;;7.07;3.70;;;;;;;11.12;82.04;96782.75;4906168;29;20055;-63
2021/05/07 04:13:46;;;;;;;10.95;4.60;;;;;;;10.98;81.64;96722.44;4907576;29;20036;-63
2021/05/07 04:16:11;;;;;;;7.38;4.13;;;;;;;12.07;81.02;96862.19;4905567;29;20036;-63
2021/05/07 04:18:38;;;;;;;6.28;4.22;;;;;;;12.33;79.74;96861.97;4906062;29;20354;-64
2021/05/07 04:21:04;;;;;;;7.53;3.78;;;;;;;12.55;78.26;96872.03;4905670;29;20035;-64
2021/05/07 04:23:29;;;;;;;11.52;3.90;;;;;;;12.67;78.25;96874.50;4907393;29;20040;-63
2021/05/07 04:25:55;;;;;;;6.78;4.03;;;;;;;12.81;76.91;96874.59;4906917;29;20833;-63
2021/05/07 04:28:21;;;;;;;5.75;3.92;;;;;;;12.83;77.12;96872.22;4907306;29;20047;-66
2021/05/07 04:30:47;;;;;;;7.80;4.15;;;;;;;11.69;77.51;96723.91;4906489;29;20047;-64
2021/05/07 04:33:13;;;;;;;5.43;4.68;;;;;;;13.00;76.54;96879.06;4907413;29;20040;-64
2021/05/07 04:35:38;;;;;;;8.65;3.90;;;;;;;13.10;75.88;96893.03;4905408;29;20043;-63
2021/05/07 04:38:04;;;;;;;10.27;4.30;;;;;;;12.87;75.74;96839.66;4906302;29;20405;-63
2021/05/07 04:40:30;;;;;;;9.52;4.30;;;;;;;13.38;75.15;96882.03;4905616;29;20526;-63
2021/05/07 04:42:55;;;;;;;6.80;4.07;;;;;;;13.60;75.17;96878.13;4907473;29;20455;-64
2021/05/07 04:45:21;;;;;;;9.20;4.43;;;;;;;13.43;74.28;96831.59;4907052;29;20032;-63
2021/05/07 04:47:46;;;;;;;8.13;4.28;;;;;;;13.84;73.84;96876.59;4905423;29;20479;-66
2021/05/07 04:50:13;;;;;;;10.02;3.78;;;;;;;13.33;72.48;96742.50;4906467;29;20047;-64
2021/05/07 04:52:40;;;;;;;6.00;3.70;;;;;;;14.05;72.12;96831.25;4907202;29;20529;-64
2021/05/07 04:55:06;;;;;;;12.73;4.22;;;;;;;14.11;72.83;96858.31;4905057;29;20032;-64
2021/05/07 04:57:32;;;;;;;14.65;4.90;;;;;;;14.22;72.32;96838.81;4905678;29;20512;-65
2021/05/07 04:59:57;;;;;;;8.20;3.88;;;;;;;14.24;71.66;96823.28;4907037;29;20190;-64
2021/05/07 05:02:23;;;;;;;6.00;4.35;;;;;;;14.68;71.04;96881.38;4905166;29;20520;-63
2021/05/07 05:04:48;;;;;;;8.07;4.18;;;;;;;14.56;70.69;96817.66;4906753;29;20032;-65
2021/05/07 05:07:14;;;;;;;7.95;3.85;;;;;;;15.10;69.59;96870.13;4906580;29;20051;-64
2021/05/07 05:09:40;;;;;;;8.57;3.55;;;;;;;15.22;68.95;96861.31;4909445;29;20040;-65
2021/05/07 05:12:06;;;;;;;8.02;3.58;;;;;;;15.39;67.63;96849.31;4908227;29;20483;-64
2021/05/07 05:14:31;;;;;;;12.02;4.28;;;;;;;15.16;67.39;96818.28;4910519;29;20071;-64
2021/05/07 05:16:57;;;;;;;11.27;4.30;;;;;;;15.73;66.51;96858.69;4909917;29;20131;-65
2021/05/07 05:19:22;;;;;;;4.90;3.78;;;;;;;15.94;65.21;96869.72;4910798;29;20107;-64
2021/05/07 05:21:47;;;;;;;5.25;3.33;;;;;;;15.79;64.62;96829.09;4908382;29;20040;-64
2021/05/07 05:24:13;;;;;;;14.02;3.90;;;;;;;16.18;63.69;96849.19;4909999;29;20039;-66
2021/05/07 05:26:38;;;;;;;6.97;3.90;;;;;;;16.27;62.98;96824.34;4909586;29;20445;-64
2021/05/07 05:29:04;;;;;;;9.90;4.35;;;;;;;16.63;63.31;96844.41;4909816;29;20044;-65
2021/05/07 05:31:29;;;;;;;8.77;4.63;;;;;;;16.82;64.27;96868.22;4909936;29;20511;-63
2021/05/07 05:33:55;;;;;;;8.52;4.75;;;;;;;16.98;64.12;96865.63;4908129;29;20480;-63
2021/05/07 05:36:21;;;;;;;8.00;4.30;;;;;;;16.86;63.57;96839.00;4909192;29;20036;-63
2021/05/07 05:38:47;;;;;;;10.30;4.45;;;;;;;16.89;63.33;96806.56;4910024;29;20116;-63
2021/05/07 05:41:12;;;;;;;17.17;4.47;;;;;;;16.50;63.42;96714.72;4910166;29;20024;-64
2021/05/07 05:43:37;;;;;;;12.02;4.20;;;;;;;17.44;63.17;96855.50;4908126;29;20079;-63
2021/05/07 05:46:03;;;;;;;6.45;4.32;;;;;;;17.49;63.82;96857.06;4909468;29;20419;-63
2021/05/07 05:48:28;;;;;;;5.35;4.30;;;;;;;17.52;63.34;96856.22;4909576;29;20044;-65
2021/05/07 05:50:54;;;;;;;8.68;3.97;;;;;;;17.73;63.83;96855.94;4907722;29;20047;-64
2021/05/07 05:53:20;;;;;;;7.60;4.05;;;;;;;17.42;62.50;96764.72;4909950;29;20044;-64
2021/05/07 05:55:46;;;;;;;8.60;4.30;;;;;;;17.23;61.71;96754.97;4907535;29;20147;-63
2021/05/07 05:58:12;;;;;;;7.25;4.18;;;;;;;18.18;60.02;96860.03;4909990;29;20115;-65
2021/05/07 06:00:38;;;;;;;7.05;3.78;;;;;;;18.43;59.11;96854.84;4909081;29;20570;-63
2021/05/07 06:03:05;;;;;;;6.88;4.30;;;;;;;18.67;58.85;96864.88;4909485;29;20048;-62
2021/05/07 06:05:31;;;;;;;6.78;4.10;;;;;;;18.59;57.07;96863.41;4908874;29;20123;-65
2021/05/07 06:07:57;;;;;;;8.05;4.63;;;;;;;16.49;55.99;96493.03;4909503;29;20043;-63
2021/05/07 06:10:22;;;;;;;8.38;3.72;;;;;;;19.29;55.46;96853.69;4906918;29;20873;-64
2021/05/07 06:12:49;;;;;;;4.63;3.60;;;;;;;19.50;54.52;96856.09;4908624;29;20124;-64
2021/05/07 06:15:19;;;;;;;7.82;3.92;;;;;;;19.81;53.88;96864.25;4908854;29;20051;-60
2021/05/07 06:17:45;;;;;;;8.57;4.15;;;;;;;19.89;53.49;96854.41;4909569;29;20578;-62
2021/05/07 06:20:13;;;;;;;8.82;3.83;;;;;;;19.36;51.98;96845.13;4908432;29;20522;-61
2021/05/07 06:22:39;;;;;;;7.13;3.78;;;;;;;18.40;50.35;96658.59;4907241;29;20051;-61
2021/05/07 06:25:09;;;;;;;8.77;3.45;;;;;;;20.00;49.08;96838.09;4908679;29;20047;-61
2021/05/07 06:27:35;;;;;;;5.70;3.80;;;;;;;19.90;48.63;96768.88;4908523;29;20150;-63
2021/05/07 06:30:02;;;;;;;6.75;4.60;;;;;;;20.08;46.37;96757.97;4908888;29;20561;-63
2021/05/07 06:32:27;;;;;;;4.28;2.90;;;;;;;19.51;46.93;96784.59;4906754;29;20067;-61
2021/05/07 06:34:52;;;;;;;3.60;2.78;;;;;;;19.68;47.70;96843.66;4907286;29;20481;-62
2021/05/07 06:37:18;;;;;;;4.93;3.42;;;;;;;19.92;47.67;96840.28;4907106;29;20032;-62
2021/05/07 06:39:44;;;;;;;3.95;3.10;;;;;;;18.02;47.61;96526.34;4909429;29;20260;-62
2021/05/07 06:42:10;;;;;;;9.90;3.47;;;;;;;20.31;48.06;96830.97;4892933;29;20496;-67
2021/05/07 06:44:35;;;;;;;4.47;3.30;;;;;;;19.98;45.33;96773.09;4902895;29;20035;-67
2021/05/07 06:47:01;;;;;;;7.45;3.10;;;;;;;20.67;44.25;96804.31;4907603;29;20036;-65
2021/05/07 06:49:27;;;;;;;5.78;2.97;;;;;;;21.12;44.50;96826.84;4908508;29;20042;-65
2021/05/07 06:51:53;;;;;;;3.65;2.88;;;;;;;21.06;45.12;96808.91;4907957;29;20516;-71
2021/05/07 06:54:25;;;;;;;6.07;2.72;;;;;;;21.10;43.87;96758.91;4907101;29;20127;-69
2021/05/07 06:56:51;;;;;;;9.10;4.10;;;;;;;21.72;43.10;96834.34;4907532;29;20052;-64
2021/05/07 06:59:18;;;;;;;6.20;2.88;;;;;;;21.65;42.55;96806.38;4907219;29;20043;-65
2021/05/07 07:01:43;;;;;;;5.13;3.13;;;;;;;21.94;42.30;96817.59;4907451;29;20067;-67
2021/05/07 07:04:09;;;;;;;5.22;3.17;;;;;;;21.91;41.56;96788.25;4905972;29;20042;-63
2021/05/07 07:06:34;;;;;;;13.05;4.10;;;;;;;21.55;41.99;96818.75;4907033;29;20042;-66
2021/05/07 07:09:00;;;;;;;5.55;3.30;;;;;;;21.99;41.45;96820.63;4907404;29;20028;-65
2021/05/07 07:11:25;;;;;;;5.28;3.97;;;;;;;22.13;40.74;96819.41;4907108;29;20103;-63
2021/05/07 07:13:50;;;;;;;5.10;3.33;;;;;;;21.76;39.70;96738.38;4907592;29;20044;-62
2021/05/07 07:16:16;;;;;;;4.72;3.70;;;;;;;22.12;40.13;96722.69;4907489;29;20537;-63
2021/05/07 07:18:42;;;;;;;7.30;3.55;;;;;;;22.55;39.81;96818.03;4906369;29;20422;-64
2021/05/07 07:21:08;;;;;;;7.32;3.40;;;;;;;22.47;39.50;96763.03;4907208;29;20481;-68
2021/05/07 07:23:36;;;;;;;8.35;4.15;;;;;;;22.92;39.30;96813.56;4907907;29;20036;-65
2021/05/07 07:26:03;;;;;;;5.72;3.40;;;;;;;22.99;39.44;96807.63;4906780;29;20122;-65
2021/05/07 07:28:28;;;;;;;7.10;4.13;;;;;;;22.77;39.59;96767.25;4907178;29;20032;-64
2021/05/07 07:30:54;;;;;;;8.15;3.92;;;;;;;22.54;42.02;96810.03;4905996;29;20487;-64
2021/05/07 07:33:19;;;;;;;7.13;4.20;;;;;;;21.73;40.30;96669.56;4906936;29;20417;-67
2021/05/07 07:35:45;;;;;;;6.63;4.35;;;;;;;22.28;40.96;96759.22;4902186;29;20496;-67
2021/05/07 07:38:10;;;;;;;6.82;4.35;;;;;;;22.72;40.98;96771.47;4886791;29;20036;-64
2021/05/07 07:40:36;;;;;;;4.75;3.70;;;;;;;22.21;41.83;96801.00;4895219;29;20296;-68
2021/05/07 07:43:02;;;;;;;8.05;4.15;;;;;;;20.96;42.00;96629.72;4912409;29;20071;-68
2021/05/07 07:45:27;;;;;;;6.07;3.70;;;;;;;20.48;42.95;96593.34;4925956;29;20028;-69
2021/05/07 07:47:53;;;;;;;6.32;3.90;;;;;;;22.39;42.36;96799.19;4907471;29;20039;-68
2021/05/07 07:50:21;;;;;;;8.00;4.50;;;;;;;22.02;43.02;96774.59;4906369;29;20031;-68
2021/05/07 07:52:47;;;;;;;8.05;3.65;;;;;;;22.06;43.95;96763.19;4907012;29;20519;-66
2021/05/07 07:55:13;;;;;;;8.07;3.83;;;;;;;22.31;42.49;96741.38;4906871;29;20032;-66
2021/05/07 07:57:38;;;;;;;8.50;4.10;;;;;;;22.23;42.78;96756.97;4907444;29;20104;-64
2021/05/07 08:00:05;;;;;;;6.85;3.92;;;;;;;22.71;41.78;96786.03;4906026;29;20492;-64
2021/05/07 08:02:30;;;;;;;5.43;3.72;;;;;;;22.96;41.77;96794.41;4905458;29;20067;-64
2021/05/07 08:04:56;;;;;;;14.45;4.93;;;;;;;22.52;42.83;96734.25;4906973;29;20491;-65
2021/05/07 08:07:22;;;;;;;6.25;3.67;;;;;;;22.83;42.65;96776.72;4906082;29;20522;-66
2021/05/07 08:09:47;;;;;;;7.18;4.22;;;;;;;22.49;43.61;96798.03;4906954;29;20048;-65
2021/05/07 08:12:13;;;;;;;8.30;3.63;;;;;;;21.51;44.08;96732.72;4906158;29;20129;-65
2021/05/07 08:14:39;;;;;;;5.40;3.90;;;;;;;22.04;44.17;96783.41;4907098;29;20032;-65
2021/05/07 08:17:05;;;;;;;6.45;3.58;;;;;;;21.97;44.24;96749.78;4908912;29;20493;-63
2021/05/07 08:19:30;;;;;;;4.35;3.35;;;;;;;22.61;43.44;96775.88;4924233;29;20114;-63
2021/05/07 08:21:56;;;;;;;5.97;4.00;;;;;;;22.23;44.01;96779.56;4926047;29;20043;-68
2021/05/07 08:24:23;;;;;;;7.80;3.58;;;;;;;21.70;44.27;96667.66;4908544;29;20190;-68
2021/05/07 08:26:49;;;;;;;6.75;4.25;;;;;;;22.32;44.45;96770.38;4906066;29;20494;-69
2021/05/07 08:29:15;;;;;;;4.57;3.63;;;;;;;21.79;43.42;96642.41;4906964;29;20038;-69
2021/05/07 08:31:40;;;;;;;7.25;3.47;;;;;;;22.79;43.15;96765.56;4905961;29;20139;-67
2021/05/07 08:34:06;;;;;;;11.43;3.97;;;;;;;23.07;42.82;96763.75;4906666;29;20035;-70
2021/05/07 08:36:31;;;;;;;6.72;3.60;;;;;;;22.94;42.08;96731.94;4906419;29;20115;-67
2021/05/07 08:38:57;;;;;;;7.47;3.80;;;;;;;22.88;42.90;96683.72;4906853;29;20042;-71
2021/05/07 08:41:23;;;;;;;10.95;6.47;;;;;;;23.31;42.12;96717.66;4906882;29;20486;-66
2021/05/07 08:43:52;;;;;;;9.07;6.07;;;;;;;24.05;41.51;96745.84;4908409;29;20036;-66
2021/05/07 08:46:18;;;;;;;6.70;4.40;;;;;;;23.62;40.91;96641.28;4923988;29;20580;-72
2021/05/07 08:48:45;;;;;;;4.68;4.07;;;;;;;24.31;39.91;96729.41;4908162;29;20130;-68
2021/05/07 08:51:11;;;;;;;7.57;3.70;;;;;;;24.13;40.12;96686.88;4909420;29;20090;-65
2021/05/07 08:53:37;;;;;;;5.18;3.58;;;;;;;24.46;39.58;96677.34;4909508;29;20063;-65
2021/05/07 08:56:04;;;;;;;6.30;3.30;;;;;;;23.18;39.78;96561.44;4908807;29;20063;-66
2021/05/07 08:58:30;;;;;;;4.38;3.75;;;;;;;24.04;40.49;96701.03;4909370;29;20032;-65
2021/05/07 09:00:56;;;;;;;6.30;4.10;;;;;;;24.28;40.42;96725.44;4908209;29;20042;-65
2021/05/07 09:03:21;;;;;;;5.05;4.40;;;;;;;24.69;39.44;96719.25;4908754;29;20240;-70
2021/05/07 09:05:47;;;;;;;7.43;4.10;;;;;;;24.26;39.57;96668.53;4909934;29;20043;-69
2021/05/07 09:08:13;;;;;;;3.80;3.47;;;;;;;24.52;39.31;96674.66;4908846;29;20028;-68
2021/05/07 09:10:42;;;;;;;6.65;4.20;;;;;;;24.65;39.19;96712.13;4909387;29;20404;-68
2021/05/07 09:13:10;;;;;;;6.32;3.85;;;;;;;24.67;39.47;96713.28;4909349;29;20051;-68
2021/05/07 09:15:44;;;;;;;7.30;4.32;;;;;;;24.38;40.37;96670.44;4907698;29;20039;-69
2021/05/07 09:18:11;;;;;;;6.97;4.20;;;;;;;23.90;41.26;96679.72;4907609;29;20087;-64
2021/05/07 09:20:39;;;;;;;6.85;3.97;;;;;;;24.45;40.16;96715.44;4907524;29;20075;-68
2021/05/07 09:23:11;;;;;;;5.75;3.70;;;;;;;23.37;41.62;96710.13;4907728;29;20047;-70
2021/05/07 09:25:36;;;;;;;6.78;3.70;;;;;;;23.76;41.07;96652.81;4906223;29;20028;-75
2021/05/07 09:28:06;;;;;;;6.85;3.33;;;;;;;23.74;40.87;96696.97;4909787;29;20466;-73
2021/05/07 09:30:32;;;;;;;7.32;3.78;;;;;;;22.51;42.07;96483.41;4909215;29;20040;-70
2021/05/07 09:32:58;;;;;;;6.22;3.22;;;;;;;22.98;42.62;96613.94;4908182;29;20522;-73
2021/05/07 09:35:29;;;;;;;8.57;4.85;;;;;;;24.00;41.36;96670.03;4909075;29;20032;-71
2021/05/07 09:38:12;;;;;;;5.72;3.53;;;;;;;24.20;41.13;96700.75;4909732;29;20040;-69
2021/05/07 09:40:40;;;;;;;7.57;4.55;;;;;;;23.60;41.32;96590.84;4907754;29;20035;-69
2021/05/07 09:43:18;;;;;;;7.35;4.22;;;;;;;24.37;40.15;96690.72;4907751;29;20063;-68
2021/05/07 09:45:47;;;;;;;4.05;3.67;;;;;;;24.02;41.06;96687.34;4908086;29;20119;-67
2021/05/07 09:48:21;;;;;;;4.53;3.28;;;;;;;23.69;40.45;96598.56;4909838;29;20036;-67
2021/05/07 09:50:48;;;;;;;5.00;4.07;;;;;;;24.96;39.51;96671.06;4908728;29;20103;-68
2021/05/07 09:53:20;;;;;;;9.63;4.90;;;;;;;23.90;40.20;96577.84;4909715;29;20044;-69
2021/05/07 09:55:51;;;;;;;6.18;4.07;;;;;;;25.52;38.87;96683.91;4906568;29;20443;-68
2021/05/07 09:58:17;;;;;;;11.73;5.63;;;;;;;26.04;37.69;96674.88;4907755;29;20047;-69
2021/05/07 10:00:43;;;;;;;4.85;3.47;;;;;;;25.26;38.59;96658.75;4911007;29;20050;-68
2021/05/07 10:03:09;;;;;;;5.10;4.00;;;;;;;24.39;40.15;96657.06;4907869;29;20369;-67
2021/05/07 10:05:35;;;;;;;6.30;3.70;;;;;;;25.09;39.90;96676.56;4908842;29;20043;-67
2021/05/07 10:08:02;;;;;;;7.95;4.13;;;;;;;24.67;39.41;96636.81;4907379;29;20040;-77
2021/05/07 10:10:30;;;;;;;5.60;3.58;;;;;;;25.24;38.75;96664.09;4915365;29;20066;-70
2021/05/07 10:12:59;;;;;;;6.55;3.33;;;;;;;24.04;38.92;96529.19;4901447;29;20084;-66
2021/05/07 10:15:30;;;;;;;6.50;3.90;;;;;;;25.54;39.64;96670.03;4925012;29;20122;-72
2021/05/07 10:17:56;;;;;;;5.90;4.45;;;;;;;25.88;37.45;96587.25;4900889;29;20091;-75
2021/05/07 10:20:27;;;;;;;8.63;4.22;;;;;;;25.29;39.18;96632.25;4921273;29;20474;-65
2021/05/07 10:22:53;;;;;;;5.55;4.25;;;;;;;26.55;37.94;96642.22;4899618;29;20139;-69
2021/05/07 10:25:22;;;;;;;10.63;4.78;;;;;;;23.70;38.69;96303.16;4922693;29;20478;-76
2021/05/07 10:27:49;;;;;;;7.05;4.13;;;;;;;24.80;40.00;96548.78;4907058;29;20055;-65
2021/05/07 10:30:40;;;;;;;10.02;4.57;;;;;;;26.03;38.18;96588.94;4922935;29;20031;-64
2021/05/07 10:33:15;;;;;;;4.45;3.90;;;;;;;24.77;39.95;96576.00;4910431;29;20048;-63
2021/05/07 10:35:41;;;;;;;5.55;3.90;;;;;;;25.24;40.81;96606.63;4906883;29;20084;-68
2021/05/07 10:38:12;;;;;;;6.60;3.80;;;;;;;24.88;40.35;96539.47;4907794;29;20130;-66
2021/05/07 10:40:38;;;;;;;8.15;3.80;;;;;;;24.48;40.88;96529.63;4905949;29;20039;-64
2021/05/07 10:43:04;;;;;;;8.57;4.30;;;;;;;24.81;40.59;96562.47;4900719;29;20072;-67
2021/05/07 10:45:41;;;;;;;10.85;5.90;;;;;;;25.91;40.35;96620.38;4907353;29;20636;-66
2021/05/07 10:48:13;;;;;;;4.65;4.25;;;;;;;25.82;40.02;96623.25;4923158;29;20040;-64
2021/05/07 10:50:40;;;;;;;8.65;3.85;;;;;;;25.44;40.54;96575.69;4910154;29;20048;-68
2021/05/07 10:53:06;;;;;;;7.63;5.13;;;;;;;26.09;39.43;96591.88;4917194;29;20063;-67
2021/05/07 10:55:38;;;;;;;6.70;3.53;;;;;;;26.73;37.83;96544.63;4907541;29;20066;-69
2021/05/07 10:58:06;;;;;;;10.75;6.30;;;;;;;26.89;38.89;96609.53;4905721;29;20467;-65
2021/05/07 11:00:36;;;;;;;11.23;5.43;;;;;;;26.43;37.47;96452.91;4911560;29;20103;-67
2021/05/07 11:03:04;;;;;;;7.03;4.90;;;;;;;26.82;37.95;96567.31;4907785;29;20080;-65
2021/05/07 11:05:48;;;;;;;9.98;4.10;;;;;;;26.44;36.94;96485.72;4925163;29;20132;-64
2021/05/07 11:08:14;;;;;;;5.57;3.97;;;;;;;25.96;38.18;96520.34;4913436;29;20135;-71
2021/05/07 11:10:41;;;;;;;6.68;4.10;;;;;;;26.43;38.65;96560.09;4914822;29;20127;-65
2021/05/07 11:13:07;;;;;;;7.90;3.90;;;;;;;27.48;37.10;96571.31;4906127;29;20032;-65
2021/05/07 11:15:33;;;;;;;6.22;4.18;;;;;;;27.53;36.90;96579.16;4907373;29;20036;-65
2021/05/07 11:18:05;;;;;;;4.00;3.60;;;;;;;26.92;38.19;96568.00;4918281;29;20563;-73
2021/05/07 11:20:42;;;;;;;7.22;4.50;;;;;;;25.20;37.46;96215.53;4913469;29;20035;-66
2021/05/07 11:23:13;;;;;;;7.80;3.97;;;;;;;26.43;37.54;96480.53;4917087;29;20483;-67
2021/05/07 11:25:39;;;;;;;7.10;4.03;;;;;;;27.31;37.68;96560.94;4906406;29;20036;-70
2021/05/07 11:28:17;;;;;;;6.25;3.88;;;;;;;26.25;38.69;96503.41;4916948;29;20035;-69
2021/05/07 11:30:52;;;;;;;7.85;4.30;;;;;;;26.50;38.62;96565.38;4909586;29;20051;-71
2021/05/07 11:33:20;;;;;;;8.32;4.32;;;;;;;26.94;38.60;96566.22;4906976;29;20479;-71
2021/05/07 11:35:46;;;;;;;10.70;4.88;;;;;;;27.79;37.38;96597.13;4921869;29;20127;-68